Flood From: 24-02-2018 06:00 Until: 25-02-2018 06:00 warning for: Flood Level: Yellow info button

Although rather usual in this region, locally or potentially dangerous phenomena are expected. (such as local winds, summer thunderstorms, rising streams or high waves) Be aware and pay attention to the latest weather updates, especially if you carry out activities exposed to weather or close to a stream or shoreline. 


Meteo18 Weather Cam more information Meteo18 Weather Cam


Thunder radar more information blitzortung!


Rain radar more information rain snow radar


Visit our other weather sites:

Template documentation
and downloads

And another site



Weather Underground History page Text

Daily Summary for February 18, 2017 Units:  Both    English   Metric
« Previous Day
Next Day »
Daily Weekly Monthly Yearly Custom
  High: Low: Average:
Temperature: TemperatureC °F /  -17.8 °C 1.4 °F /  -17 °C 6.5 °F /  -14.2 °C
Dew Point: DewpointC °F /  -17.8 °C 0.8 °F /  -17.3 °C 3.1 °F /  -16.1 °C
Humidity: Humidity % 52 % 79 %
Wind Speed: WindSpeedKMH mph /  0 km/h - 3.7 mph /  6 km/h
Wind Gust: WindSpeedGustKMH mph /  0 km/h - -
Wind:- - East
Pressure: PressurehPa in /  0 hPa 1023.6 in /  34659.1 hPa -
Precipitation: 0.3 in /  7.62 mm    
Historical Graphs
 
 
Tabular Data for February 18, 2017
Time Temperature Dew Point Pressure Wind Wind Speed Wind Gust Humidity Rainfall Rate (Hourly)
TemperatureC °F /  -17.8 °C DewpointC °F /  -17.8 °C PressurehPa in /  0 hPa Calm     Humidity % HourlyPrecipMM in /  0 mm
00:02 4.8 °F /  -15.1 °C 3.5 °F /  -15.8 °C 1028.0 in /  34808.1 hPa Calm   1.6 mph /  2.6 km/h 91 % 0.0 in /  0 mm
00:07 4.7 °F /  -15.2 °C 3.4 °F /  -15.9 °C 1028.0 in /  34808.1 hPa Calm   1.6 mph /  2.6 km/h 91 % 0.0 in /  0 mm
00:12 4.6 °F /  -15.2 °C 3.3 °F /  -15.9 °C 1028.0 in /  34808.1 hPa Calm   1.6 mph /  2.6 km/h 91 % 0.0 in /  0 mm
00:17 4.5 °F /  -15.3 °C 3.3 °F /  -15.9 °C 1028.0 in /  34808.1 hPa Calm   1.6 mph /  2.6 km/h 92 % 0.0 in /  0 mm
00:22 4.7 °F /  -15.2 °C 3.5 °F /  -15.8 °C 1028.0 in /  34808.1 hPa Calm   1.6 mph /  2.6 km/h 92 % 0.0 in /  0 mm
00:32 4.8 °F /  -15.1 °C 3.5 °F /  -15.8 °C 1028.0 in /  34808.1 hPa Calm   1.6 mph /  2.6 km/h 91 % 0.0 in /  0 mm
00:42 4.9 °F /  -15.1 °C 3.6 °F /  -15.8 °C 1028.0 in /  34808.1 hPa Calm   1.6 mph /  2.6 km/h 91 % 0.0 in /  0 mm
00:47 5.1 °F /  -14.9 °C 3.6 °F /  -15.8 °C 1027.7 in /  34797.9 hPa NNW 1.6 mph /  2.6 km/h 3.2 mph /  5.1 km/h 90 % 0.0 in /  0 mm
00:52 5.1 °F /  -14.9 °C 3.6 °F /  -15.8 °C 1027.7 in /  34797.9 hPa Calm   3.2 mph /  5.1 km/h 90 % 0.0 in /  0 mm
00:57 4.2 °F /  -15.4 °C 2.4 °F /  -16.4 °C 1027.7 in /  34797.9 hPa West 1.6 mph /  2.6 km/h 3.2 mph /  5.1 km/h 88 % 0.0 in /  0 mm
01:02 3.7 °F /  -15.7 °C 2.5 °F /  -16.4 °C 1027.7 in /  34797.9 hPa WNW 3.2 mph /  5.1 km/h 3.2 mph /  5.1 km/h 92 % 0.0 in /  0 mm
01:07 3.8 °F /  -15.7 °C 2.9 °F /  -16.2 °C 1027.7 in /  34797.9 hPa WNW 1.6 mph /  2.6 km/h 4.8 mph /  7.7 km/h 94 % 0.0 in /  0 mm
01:12 4.2 °F /  -15.4 °C 3.2 °F /  -16 °C 1027.7 in /  34797.9 hPa NW 1.6 mph /  2.6 km/h 4.8 mph /  7.7 km/h 93 % 0.0 in /  0 mm
01:17 3.9 °F /  -15.6 °C 2.4 °F /  -16.4 °C 1027.7 in /  34797.9 hPa WNW 1.6 mph /  2.6 km/h 4.8 mph /  7.7 km/h 90 % 0.0 in /  0 mm
01:22 3.6 °F /  -15.8 °C 2.4 °F /  -16.4 °C 1027.7 in /  34797.9 hPa WNW 1.6 mph /  2.6 km/h 3.2 mph /  5.1 km/h 92 % 0.0 in /  0 mm
01:32 4.4 °F /  -15.3 °C 3.4 °F /  -15.9 °C 1027.7 in /  34797.9 hPa Calm   3.2 mph /  5.1 km/h 93 % 0.0 in /  0 mm
01:42 4.7 °F /  -15.2 °C 3.4 °F /  -15.9 °C 1027.7 in /  34797.9 hPa Calm   1.6 mph /  2.6 km/h 91 % 0.0 in /  0 mm
01:47 4.7 °F /  -15.2 °C 3.4 °F /  -15.9 °C 1027.7 in /  34797.9 hPa Calm   1.6 mph /  2.6 km/h 91 % 0.0 in /  0 mm
01:52 4.6 °F /  -15.2 °C 3.1 °F /  -16.1 °C 1027.7 in /  34797.9 hPa Calm   1.6 mph /  2.6 km/h 90 % 0.0 in /  0 mm
01:57 4.3 °F /  -15.4 °C 2.8 °F /  -16.2 °C 1027.7 in /  34797.9 hPa Calm   1.6 mph /  2.6 km/h 90 % 0.0 in /  0 mm
02:02 4.2 °F /  -15.4 °C 2.7 °F /  -16.3 °C 1027.7 in /  34797.9 hPa North 1.6 mph /  2.6 km/h 1.6 mph /  2.6 km/h 90 % 0.0 in /  0 mm
02:12 4.1 °F /  -15.5 °C 2.8 °F /  -16.2 °C 1027.3 in /  34784.4 hPa NNW 1.6 mph /  2.6 km/h 3.2 mph /  5.1 km/h 91 % 0.0 in /  0 mm
02:17 3.9 °F /  -15.6 °C 2.6 °F /  -16.3 °C 1027.3 in /  34784.4 hPa Calm   3.2 mph /  5.1 km/h 91 % 0.0 in /  0 mm
02:22 3.8 °F /  -15.7 °C 2.5 °F /  -16.4 °C 1027.3 in /  34784.4 hPa Calm   1.6 mph /  2.6 km/h 91 % 0.0 in /  0 mm
02:27 3.8 °F /  -15.7 °C 2.6 °F /  -16.3 °C 1027.3 in /  34784.4 hPa Calm   1.6 mph /  2.6 km/h 92 % 0.0 in /  0 mm
02:32 3.7 °F /  -15.7 °C 2.5 °F /  -16.4 °C 1027.3 in /  34784.4 hPa Calm     92 % 0.0 in /  0 mm
02:37 3.7 °F /  -15.7 °C 2.5 °F /  -16.4 °C 1027.3 in /  34784.4 hPa Calm     92 % 0.0 in /  0 mm
02:47 3.6 °F /  -15.8 °C 2.4 °F /  -16.4 °C 1027.3 in /  34784.4 hPa NW 1.6 mph /  2.6 km/h 3.2 mph /  5.1 km/h 92 % 0.0 in /  0 mm
02:57 3.5 °F /  -15.8 °C 2.3 °F /  -16.5 °C 1027.3 in /  34784.4 hPa Calm   3.2 mph /  5.1 km/h 92 % 0.0 in /  0 mm
03:02 3.5 °F /  -15.8 °C 2.5 °F /  -16.4 °C 1027.0 in /  34774.2 hPa NNW 1.6 mph /  2.6 km/h 3.2 mph /  5.1 km/h 93 % 0.0 in /  0 mm
03:12 3.4 °F /  -15.9 °C 2.4 °F /  -16.4 °C 1027.0 in /  34774.2 hPa NW 1.6 mph /  2.6 km/h 1.6 mph /  2.6 km/h 93 % 0.0 in /  0 mm
03:17 3.5 °F /  -15.8 °C 2.5 °F /  -16.4 °C 1027.0 in /  34774.2 hPa Calm   1.6 mph /  2.6 km/h 93 % 0.0 in /  0 mm
03:22 3.5 °F /  -15.8 °C 2.5 °F /  -16.4 °C 1027.0 in /  34774.2 hPa Calm   3.2 mph /  5.1 km/h 93 % 0.0 in /  0 mm
03:27 3.4 °F /  -15.9 °C 2.4 °F /  -16.4 °C 1027.0 in /  34774.2 hPa Calm   3.2 mph /  5.1 km/h 93 % 0.0 in /  0 mm
03:32 3.3 °F /  -15.9 °C 2.3 °F /  -16.5 °C 1027.0 in /  34774.2 hPa Calm   3.2 mph /  5.1 km/h 93 % 0.0 in /  0 mm
03:37 3.3 °F /  -15.9 °C 2.3 °F /  -16.5 °C 1027.0 in /  34774.2 hPa Calm   3.2 mph /  5.1 km/h 93 % 0.0 in /  0 mm
03:42 3.1 °F /  -16.1 °C 2.1 °F /  -16.6 °C 1027.0 in /  34774.2 hPa NNW 1.6 mph /  2.6 km/h 3.2 mph /  5.1 km/h 93 % 0.0 in /  0 mm
03:47 3.1 °F /  -16.1 °C 2.1 °F /  -16.6 °C 1027.0 in /  34774.2 hPa Calm   3.2 mph /  5.1 km/h 93 % 0.0 in /  0 mm
03:52 3.0 °F /  -16.1 °C 2.0 °F /  -16.7 °C 1027.0 in /  34774.2 hPa Calm   3.2 mph /  5.1 km/h 93 % 0.0 in /  0 mm
03:57 3.0 °F /  -16.1 °C 2.1 °F /  -16.6 °C 1027.0 in /  34774.2 hPa Calm   3.2 mph /  5.1 km/h 94 % 0.0 in /  0 mm
04:02 2.9 °F /  -16.2 °C 1.9 °F /  -16.7 °C 1026.6 in /  34760.7 hPa Calm   3.2 mph /  5.1 km/h 93 % 0.0 in /  0 mm
04:12 2.9 °F /  -16.2 °C 2.0 °F /  -16.7 °C 1026.6 in /  34760.7 hPa Calm   3.2 mph /  5.1 km/h 94 % 0.0 in /  0 mm
04:22 3.1 °F /  -16.1 °C 2.2 °F /  -16.6 °C 1026.6 in /  34760.7 hPa Calm     94 % 0.0 in /  0 mm
04:32 3.2 °F /  -16 °C 2.3 °F /  -16.5 °C 1026.6 in /  34760.7 hPa Calm     94 % 0.0 in /  0 mm
04:37 3.2 °F /  -16 °C 2.3 °F /  -16.5 °C 1026.6 in /  34760.7 hPa Calm     94 % 0.0 in /  0 mm
04:42 3.1 °F /  -16.1 °C 2.1 °F /  -16.6 °C 1026.6 in /  34760.7 hPa Calm     93 % 0.0 in /  0 mm
04:47 3.0 °F /  -16.1 °C 2.0 °F /  -16.7 °C 1026.6 in /  34760.7 hPa Calm     93 % 0.0 in /  0 mm
04:52 3.0 °F /  -16.1 °C 2.1 °F /  -16.6 °C 1026.6 in /  34760.7 hPa Calm     94 % 0.0 in /  0 mm
05:02 2.8 °F /  -16.2 °C 1.9 °F /  -16.7 °C 1026.6 in /  34760.7 hPa Calm     94 % 0.0 in /  0 mm
05:12 3.3 °F /  -15.9 °C 2.4 °F /  -16.4 °C 1026.3 in /  34750.5 hPa Calm     94 % 0.0 in /  0 mm
05:22 3.1 °F /  -16.1 °C 2.1 °F /  -16.6 °C 1026.3 in /  34750.5 hPa Calm     93 % 0.0 in /  0 mm
05:32 3.1 °F /  -16.1 °C 2.2 °F /  -16.6 °C 1026.3 in /  34750.5 hPa North 1.6 mph /  2.6 km/h   94 % 0.0 in /  0 mm
05:42 2.9 °F /  -16.2 °C 1.9 °F /  -16.7 °C 1026.3 in /  34750.5 hPa Calm   3.2 mph /  5.1 km/h 93 % 0.0 in /  0 mm
05:52 2.5 °F /  -16.4 °C 1.5 °F /  -16.9 °C 1026.3 in /  34750.5 hPa Calm   1.6 mph /  2.6 km/h 93 % 0.0 in /  0 mm
05:57 2.3 °F /  -16.5 °C 1.4 °F /  -17 °C 1026.3 in /  34750.5 hPa Calm     94 % 0.0 in /  0 mm
06:02 2.4 °F /  -16.4 °C 1.7 °F /  -16.8 °C 1026.6 in /  34760.7 hPa Calm     95 % 0.0 in /  0 mm
06:07 2.7 °F /  -16.3 °C 2.0 °F /  -16.7 °C 1026.3 in /  34750.5 hPa Calm     95 % 0.0 in /  0 mm
06:12 2.7 °F /  -16.3 °C 2.0 °F /  -16.7 °C 1026.3 in /  34750.5 hPa Calm     95 % 0.0 in /  0 mm
06:17 2.7 °F /  -16.3 °C 1.8 °F /  -16.8 °C 1026.3 in /  34750.5 hPa Calm   1.6 mph /  2.6 km/h 94 % 0.0 in /  0 mm
06:22 2.4 °F /  -16.4 °C 1.5 °F /  -16.9 °C 1026.3 in /  34750.5 hPa Calm   1.6 mph /  2.6 km/h 94 % 0.0 in /  0 mm
06:32 2.4 °F /  -16.4 °C 1.7 °F /  -16.8 °C 1026.3 in /  34750.5 hPa Calm   1.6 mph /  2.6 km/h 95 % 0.0 in /  0 mm
06:42 2.3 °F /  -16.5 °C 1.4 °F /  -17 °C 1026.3 in /  34750.5 hPa Calm     94 % 0.0 in /  0 mm
06:47 1.9 °F /  -16.7 °C 1.0 °F /  -17.2 °C 1026.3 in /  34750.5 hPa Calm     94 % 0.0 in /  0 mm
06:52 1.8 °F /  -16.8 °C 0.9 °F /  -17.3 °C 1026.3 in /  34750.5 hPa Calm     94 % 0.0 in /  0 mm
07:02 1.7 °F /  -16.8 °C 0.8 °F /  -17.3 °C 1026.3 in /  34750.5 hPa Calm     94 % 0.0 in /  0 mm
07:12 1.7 °F /  -16.8 °C 1.1 °F /  -17.2 °C 1026.3 in /  34750.5 hPa Calm     96 % 0.0 in /  0 mm
07:17 1.7 °F /  -16.8 °C 1.0 °F /  -17.2 °C 1026.3 in /  34750.5 hPa Calm     95 % 0.0 in /  0 mm
07:22 1.6 °F /  -16.9 °C 0.9 °F /  -17.3 °C 1026.3 in /  34750.5 hPa Calm     95 % 0.0 in /  0 mm
07:32 1.9 °F /  -16.7 °C 1.3 °F /  -17.1 °C 1026.3 in /  34750.5 hPa Calm     96 % 0.0 in /  0 mm
07:42 1.8 °F /  -16.8 °C 1.1 °F /  -17.2 °C 1026.3 in /  34750.5 hPa Calm     95 % 0.0 in /  0 mm
07:47 1.5 °F /  -16.9 °C 0.8 °F /  -17.3 °C 1026.3 in /  34750.5 hPa Calm     95 % 0.0 in /  0 mm
07:52 1.4 °F /  -17 °C 0.8 °F /  -17.3 °C 1026.3 in /  34750.5 hPa Calm     96 % 0.0 in /  0 mm
08:02 1.7 °F /  -16.8 °C 1.1 °F /  -17.2 °C 1026.3 in /  34750.5 hPa Calm     96 % 0.0 in /  0 mm
08:12 1.8 °F /  -16.8 °C 1.2 °F /  -17.1 °C 1026.3 in /  34750.5 hPa Calm     96 % 0.0 in /  0 mm
08:17 1.7 °F /  -16.8 °C 1.0 °F /  -17.2 °C 1026.3 in /  34750.5 hPa Calm   1.6 mph /  2.6 km/h 95 % 0.0 in /  0 mm
08:22 1.6 °F /  -16.9 °C 0.9 °F /  -17.3 °C 1026.3 in /  34750.5 hPa Calm   1.6 mph /  2.6 km/h 95 % 0.0 in /  0 mm
08:32 1.8 °F /  -16.8 °C 1.2 °F /  -17.1 °C 1026.3 in /  34750.5 hPa Calm   1.6 mph /  2.6 km/h 96 % 0.0 in /  0 mm
08:42 2.1 °F /  -16.6 °C 1.5 °F /  -16.9 °C 1026.3 in /  34750.5 hPa Calm     96 % 0.0 in /  0 mm
08:52 2.3 °F /  -16.5 °C 1.7 °F /  -16.8 °C 1026.3 in /  34750.5 hPa Calm     96 % 0.3 in /  7.62 mm
09:02 2.5 °F /  -16.4 °C 1.8 °F /  -16.8 °C 1026.3 in /  34750.5 hPa Calm     95 % 0.3 in /  7.62 mm
09:12 3.1 °F /  -16.1 °C 2.4 °F /  -16.4 °C 1026.0 in /  34740.4 hPa NNE 3.2 mph /  5.1 km/h   95 % 0.3 in /  7.62 mm
09:17 3.3 °F /  -15.9 °C 2.4 °F /  -16.4 °C 1026.3 in /  34750.5 hPa Calm     94 % 0.3 in /  7.62 mm
09:22 3.6 °F /  -15.8 °C 2.7 °F /  -16.3 °C 1026.3 in /  34750.5 hPa Calm   3.2 mph /  5.1 km/h 94 % 0.3 in /  7.62 mm
09:37 4.6 °F /  -15.2 °C 3.3 °F /  -15.9 °C 1026.0 in /  34740.4 hPa ENE 1.6 mph /  2.6 km/h 1.6 mph /  2.6 km/h 91 % 0.3 in /  7.62 mm
09:42 4.7 °F /  -15.2 °C 3.4 °F /  -15.9 °C 1026.3 in /  34750.5 hPa Calm   1.6 mph /  2.6 km/h 91 % 0.3 in /  7.62 mm
09:47 4.7 °F /  -15.2 °C 3.0 °F /  -16.1 °C 1026.3 in /  34750.5 hPa Calm   3.2 mph /  5.1 km/h 89 % 0.0 in /  0 mm
09:52 4.5 °F /  -15.3 °C 2.8 °F /  -16.2 °C 1026.3 in /  34750.5 hPa NE 3.2 mph /  5.1 km/h 3.2 mph /  5.1 km/h 89 % 0.0 in /  0 mm
10:02 4.8 °F /  -15.1 °C 3.1 °F /  -16.1 °C 1026.3 in /  34750.5 hPa Calm   6.4 mph /  10.3 km/h 89 % 0.0 in /  0 mm
10:12 5.2 °F /  -14.9 °C 3.5 °F /  -15.8 °C 1026.3 in /  34750.5 hPa ESE 3.2 mph /  5.1 km/h 4.8 mph /  7.7 km/h 89 % 0.0 in /  0 mm
10:17 5.4 °F /  -14.8 °C 3.6 °F /  -15.8 °C 1026.3 in /  34750.5 hPa ENE 1.6 mph /  2.6 km/h 8.0 mph /  12.9 km/h 88 % 0.0 in /  0 mm
10:22 5.5 °F /  -14.7 °C 3.7 °F /  -15.7 °C 1026.3 in /  34750.5 hPa East 1.6 mph /  2.6 km/h 9.7 mph /  15.6 km/h 88 % 0.0 in /  0 mm
10:32 5.9 °F /  -14.5 °C 4.1 °F /  -15.5 °C 1026.3 in /  34750.5 hPa ENE 3.2 mph /  5.1 km/h 9.7 mph /  15.6 km/h 88 % 0.0 in /  0 mm
10:37 6.0 °F /  -14.4 °C 4.0 °F /  -15.6 °C 1026.3 in /  34750.5 hPa ENE 3.2 mph /  5.1 km/h 8.0 mph /  12.9 km/h 87 % 0.0 in /  0 mm
10:42 6.2 °F /  -14.3 °C 4.0 °F /  -15.6 °C 1026.3 in /  34750.5 hPa ENE 4.8 mph /  7.7 km/h 8.0 mph /  12.9 km/h 86 % 0.0 in /  0 mm
10:47 6.3 °F /  -14.3 °C 4.1 °F /  -15.5 °C 1026.3 in /  34750.5 hPa NNE 3.2 mph /  5.1 km/h 8.0 mph /  12.9 km/h 86 % 0.0 in /  0 mm
10:52 6.5 °F /  -14.2 °C 4.2 °F /  -15.4 °C 1026.3 in /  34750.5 hPa Calm   8.0 mph /  12.9 km/h 85 % 0.0 in /  0 mm
10:57 6.7 °F /  -14.1 °C 4.2 °F /  -15.4 °C 1026.3 in /  34750.5 hPa Calm   8.0 mph /  12.9 km/h 84 % 0.0 in /  0 mm
11:02 6.9 °F /  -13.9 °C 4.4 °F /  -15.3 °C 1026.3 in /  34750.5 hPa Calm   8.0 mph /  12.9 km/h 84 % 0.0 in /  0 mm
11:07 7.1 °F /  -13.8 °C 4.6 °F /  -15.2 °C 1026.0 in /  34740.4 hPa East 4.8 mph /  7.7 km/h 9.7 mph /  15.6 km/h 84 % 0.0 in /  0 mm
11:12 7.2 °F /  -13.8 °C 4.7 °F /  -15.2 °C 1026.0 in /  34740.4 hPa NNE 1.6 mph /  2.6 km/h 9.7 mph /  15.6 km/h 84 % 0.0 in /  0 mm
11:17 7.3 °F /  -13.7 °C 4.6 °F /  -15.2 °C 1026.0 in /  34740.4 hPa ENE 3.2 mph /  5.1 km/h 9.7 mph /  15.6 km/h 83 % 0.0 in /  0 mm
11:22 7.5 °F /  -13.6 °C 4.8 °F /  -15.1 °C 1026.0 in /  34740.4 hPa East 8.0 mph /  12.9 km/h 9.7 mph /  15.6 km/h 83 % 0.0 in /  0 mm
11:32 7.8 °F /  -13.4 °C 4.9 °F /  -15.1 °C 1026.0 in /  34740.4 hPa ENE 3.2 mph /  5.1 km/h 11.3 mph /  18.2 km/h 82 % 0.0 in /  0 mm
11:37 8.0 °F /  -13.3 °C 5.1 °F /  -14.9 °C 1026.0 in /  34740.4 hPa North 4.8 mph /  7.7 km/h 11.3 mph /  18.2 km/h 82 % 0.0 in /  0 mm
11:42 8.2 °F /  -13.2 °C 5.3 °F /  -14.8 °C 1026.0 in /  34740.4 hPa ENE 3.2 mph /  5.1 km/h 11.3 mph /  18.2 km/h 82 % 0.0 in /  0 mm
11:47 8.4 °F /  -13.1 °C 5.3 °F /  -14.8 °C 1026.0 in /  34740.4 hPa ENE 3.2 mph /  5.1 km/h 11.3 mph /  18.2 km/h 81 % 0.0 in /  0 mm
11:52 8.6 °F /  -13 °C 5.5 °F /  -14.7 °C 1026.0 in /  34740.4 hPa ENE 1.6 mph /  2.6 km/h 9.7 mph /  15.6 km/h 81 % 0.0 in /  0 mm
11:57 8.7 °F /  -12.9 °C 5.4 °F /  -14.8 °C 1026.0 in /  34740.4 hPa ENE 1.6 mph /  2.6 km/h 9.7 mph /  15.6 km/h 80 % 0.0 in /  0 mm
12:02 8.8 °F /  -12.9 °C 5.2 °F /  -14.9 °C 1026.0 in /  34740.4 hPa ENE 4.8 mph /  7.7 km/h 9.7 mph /  15.6 km/h 78 % 0.0 in /  0 mm
12:07 9.1 °F /  -12.7 °C 5.1 °F /  -14.9 °C 1026.0 in /  34740.4 hPa NE 6.4 mph /  10.3 km/h 9.7 mph /  15.6 km/h 76 % 0.0 in /  0 mm
12:12 9.2 °F /  -12.7 °C 5.2 °F /  -14.9 °C 1026.0 in /  34740.4 hPa ENE 4.8 mph /  7.7 km/h 12.9 mph /  20.8 km/h 76 % 0.0 in /  0 mm
12:22 9.4 °F /  -12.6 °C 5.4 °F /  -14.8 °C 1025.6 in /  34726.8 hPa NE 8.0 mph /  12.9 km/h 12.9 mph /  20.8 km/h 76 % 0.0 in /  0 mm
12:32 9.9 °F /  -12.3 °C 5.5 °F /  -14.7 °C 1025.6 in /  34726.8 hPa ENE 6.4 mph /  10.3 km/h 11.3 mph /  18.2 km/h 74 % 0.0 in /  0 mm
12:37 10.0 °F /  -12.2 °C 5.2 °F /  -14.9 °C 1025.6 in /  34726.8 hPa ENE 3.2 mph /  5.1 km/h 11.3 mph /  18.2 km/h 72 % 0.0 in /  0 mm
12:42 10.2 °F /  -12.1 °C 5.4 °F /  -14.8 °C 1025.3 in /  34716.7 hPa ENE 4.8 mph /  7.7 km/h 11.3 mph /  18.2 km/h 72 % 0.0 in /  0 mm
12:47 10.3 °F /  -12.1 °C 4.9 °F /  -15.1 °C 1025.3 in /  34716.7 hPa NE 9.7 mph /  15.6 km/h 12.9 mph /  20.8 km/h 69 % 0.0 in /  0 mm
12:52 10.3 °F /  -12.1 °C 4.2 °F /  -15.4 °C 1025.3 in /  34716.7 hPa East 4.8 mph /  7.7 km/h 14.5 mph /  23.3 km/h 66 % 0.0 in /  0 mm
12:57 10.3 °F /  -12.1 °C 4.9 °F /  -15.1 °C 1025.3 in /  34716.7 hPa NNE 8.0 mph /  12.9 km/h 14.5 mph /  23.3 km/h 69 % 0.0 in /  0 mm
13:02 10.4 °F /  -12 °C 4.7 °F /  -15.2 °C 1025.3 in /  34716.7 hPa NNE 8.0 mph /  12.9 km/h 14.5 mph /  23.3 km/h 68 % 0.0 in /  0 mm
13:07 10.5 °F /  -11.9 °C 5.1 °F /  -14.9 °C 1024.9 in /  34703.1 hPa NE 6.4 mph /  10.3 km/h 12.9 mph /  20.8 km/h 69 % 0.0 in /  0 mm
13:17 10.7 °F /  -11.8 °C 5.5 °F /  -14.7 °C 1024.9 in /  34703.1 hPa NE 9.7 mph /  15.6 km/h 12.9 mph /  20.8 km/h 70 % 0.0 in /  0 mm
13:22 10.9 °F /  -11.7 °C 5.4 °F /  -14.8 °C 1024.9 in /  34703.1 hPa ENE 4.8 mph /  7.7 km/h 12.9 mph /  20.8 km/h 69 % 0.0 in /  0 mm
13:27 10.9 °F /  -11.7 °C 4.6 °F /  -15.2 °C 1024.9 in /  34703.1 hPa East 4.8 mph /  7.7 km/h 12.9 mph /  20.8 km/h 65 % 0.0 in /  0 mm
13:32 10.9 °F /  -11.7 °C 5.2 °F /  -14.9 °C 1024.6 in /  34693 hPa NE 8.0 mph /  12.9 km/h 11.3 mph /  18.2 km/h 68 % 0.0 in /  0 mm
13:37 11.0 °F /  -11.7 °C 5.3 °F /  -14.8 °C 1024.6 in /  34693 hPa ENE 14.5 mph /  23.3 km/h 16.1 mph /  25.9 km/h 68 % 0.0 in /  0 mm
13:42 11.1 °F /  -11.6 °C 5.0 °F /  -15 °C 1024.6 in /  34693 hPa NE 3.2 mph /  5.1 km/h 17.7 mph /  28.5 km/h 66 % 0.0 in /  0 mm
13:47 11.1 °F /  -11.6 °C 5.2 °F /  -14.9 °C 1024.6 in /  34693 hPa NNE 6.4 mph /  10.3 km/h 17.7 mph /  28.5 km/h 67 % 0.0 in /  0 mm
13:52 11.1 °F /  -11.6 °C 5.2 °F /  -14.9 °C 1024.6 in /  34693 hPa NNW 8.0 mph /  12.9 km/h 17.7 mph /  28.5 km/h 67 % 0.0 in /  0 mm
13:57 11.1 °F /  -11.6 °C 4.8 °F /  -15.1 °C 1024.6 in /  34693 hPa NNE 12.9 mph /  20.8 km/h 17.7 mph /  28.5 km/h 65 % 0.0 in /  0 mm
14:02 11.3 °F /  -11.5 °C 4.7 °F /  -15.2 °C 1024.3 in /  34682.8 hPa NE 9.7 mph /  15.6 km/h 17.7 mph /  28.5 km/h 64 % 0.0 in /  0 mm
14:07 11.4 °F /  -11.4 °C 4.1 °F /  -15.5 °C 1024.3 in /  34682.8 hPa NNE 3.2 mph /  5.1 km/h 19.3 mph /  31.1 km/h 61 % 0.0 in /  0 mm
14:12 11.6 °F /  -11.3 °C 5.0 °F /  -15 °C 1024.3 in /  34682.8 hPa NE 9.7 mph /  15.6 km/h 19.3 mph /  31.1 km/h 64 % 0.0 in /  0 mm
14:17 11.4 °F /  -11.4 °C 4.1 °F /  -15.5 °C 1024.3 in /  34682.8 hPa NNE 16.1 mph /  25.9 km/h 19.3 mph /  31.1 km/h 61 % 0.0 in /  0 mm
14:22 11.4 °F /  -11.4 °C 4.4 °F /  -15.3 °C 1024.3 in /  34682.8 hPa NE 3.2 mph /  5.1 km/h 20.9 mph /  33.6 km/h 62 % 0.0 in /  0 mm
14:32 11.4 °F /  -11.4 °C 3.7 °F /  -15.7 °C 1023.9 in /  34669.3 hPa NE 8.0 mph /  12.9 km/h 20.9 mph /  33.6 km/h 59 % 0.0 in /  0 mm
14:37 11.4 °F /  -11.4 °C 3.7 °F /  -15.7 °C 1023.9 in /  34669.3 hPa NE 12.9 mph /  20.8 km/h 20.9 mph /  33.6 km/h 59 % 0.0 in /  0 mm
14:42 11.5 °F /  -11.4 °C 4.0 °F /  -15.6 °C 1023.9 in /  34669.3 hPa East 6.4 mph /  10.3 km/h 20.9 mph /  33.6 km/h 60 % 0.0 in /  0 mm
14:47 11.6 °F /  -11.3 °C 4.3 °F /  -15.4 °C 1023.9 in /  34669.3 hPa NE 8.0 mph /  12.9 km/h 20.9 mph /  33.6 km/h 61 % 0.0 in /  0 mm
14:52 11.7 °F /  -11.3 °C 4.2 °F /  -15.4 °C 1023.9 in /  34669.3 hPa NE 11.3 mph /  18.2 km/h 20.9 mph /  33.6 km/h 60 % 0.0 in /  0 mm
14:57 11.7 °F /  -11.3 °C 4.2 °F /  -15.4 °C 1023.9 in /  34669.3 hPa ENE 8.0 mph /  12.9 km/h 20.9 mph /  33.6 km/h 60 % 0.0 in /  0 mm
15:02 11.8 °F /  -11.2 °C 4.3 °F /  -15.4 °C 1023.9 in /  34669.3 hPa East 8.0 mph /  12.9 km/h 20.9 mph /  33.6 km/h 60 % 0.0 in /  0 mm
15:07 11.8 °F /  -11.2 °C 4.3 °F /  -15.4 °C 1023.9 in /  34669.3 hPa ENE 9.7 mph /  15.6 km/h 20.9 mph /  33.6 km/h 60 % 0.0 in /  0 mm
15:12 11.8 °F /  -11.2 °C 3.8 °F /  -15.7 °C 1023.9 in /  34669.3 hPa ENE 12.9 mph /  20.8 km/h 17.7 mph /  28.5 km/h 58 % 0.0 in /  0 mm
15:17 11.8 °F /  -11.2 °C 3.8 °F /  -15.7 °C 1023.9 in /  34669.3 hPa NE 8.0 mph /  12.9 km/h 19.3 mph /  31.1 km/h 58 % 0.0 in /  0 mm
15:22 11.8 °F /  -11.2 °C 3.8 °F /  -15.7 °C 1023.9 in /  34669.3 hPa ENE 14.5 mph /  23.3 km/h 25.7 mph /  41.4 km/h 58 % 0.0 in /  0 mm
15:32 11.9 °F /  -11.2 °C 3.4 °F /  -15.9 °C 1023.6 in /  34659.1 hPa East 8.0 mph /  12.9 km/h 25.7 mph /  41.4 km/h 56 % 0.0 in /  0 mm
15:37 11.9 °F /  -11.2 °C 3.6 °F /  -15.8 °C 1023.6 in /  34659.1 hPa NE 16.1 mph /  25.9 km/h 20.9 mph /  33.6 km/h 57 % 0.0 in /  0 mm
15:42 11.8 °F /  -11.2 °C 3.8 °F /  -15.7 °C 1023.6 in /  34659.1 hPa ENE 12.9 mph /  20.8 km/h 22.5 mph /  36.2 km/h 58 % 0.0 in /  0 mm
15:47 11.8 °F /  -11.2 °C 3.6 °F /  -15.8 °C 1023.6 in /  34659.1 hPa NE 8.0 mph /  12.9 km/h 22.5 mph /  36.2 km/h 57 % 0.0 in /  0 mm
15:52 11.8 °F /  -11.2 °C 3.8 °F /  -15.7 °C 1023.6 in /  34659.1 hPa NNE 16.1 mph /  25.9 km/h 24.1 mph /  38.8 km/h 58 % 0.0 in /  0 mm
15:57 11.9 °F /  -11.2 °C 3.1 °F /  -16.1 °C 1023.6 in /  34659.1 hPa NE 8.0 mph /  12.9 km/h 24.1 mph /  38.8 km/h 55 % 0.0 in /  0 mm
16:02 11.9 °F /  -11.2 °C 2.9 °F /  -16.2 °C 1023.6 in /  34659.1 hPa East 8.0 mph /  12.9 km/h 24.1 mph /  38.8 km/h 54 % 0.0 in /  0 mm
16:07 12.0 °F /  -11.1 °C 3.5 °F /  -15.8 °C 1023.6 in /  34659.1 hPa ENE 16.1 mph /  25.9 km/h 17.7 mph /  28.5 km/h 56 % 0.0 in /  0 mm
16:12 11.9 °F /  -11.2 °C 3.9 °F /  -15.6 °C 1023.6 in /  34659.1 hPa NE 8.0 mph /  12.9 km/h 20.9 mph /  33.6 km/h 58 % 0.0 in /  0 mm
16:17 11.9 °F /  -11.2 °C 3.6 °F /  -15.8 °C 1023.6 in /  34659.1 hPa NE 9.7 mph /  15.6 km/h 20.9 mph /  33.6 km/h 57 % 0.0 in /  0 mm
16:22 12.0 °F /  -11.1 °C 3.5 °F /  -15.8 °C 1023.6 in /  34659.1 hPa ENE 6.4 mph /  10.3 km/h 20.9 mph /  33.6 km/h 56 % 0.0 in /  0 mm
16:32 12.1 °F /  -11.1 °C 2.5 °F /  -16.4 °C 1023.6 in /  34659.1 hPa ENE 8.0 mph /  12.9 km/h 17.7 mph /  28.5 km/h 52 % 0.0 in /  0 mm
16:42 12.0 °F /  -11.1 °C 3.5 °F /  -15.8 °C 1023.6 in /  34659.1 hPa NE 3.2 mph /  5.1 km/h 16.1 mph /  25.9 km/h 56 % 0.0 in /  0 mm
16:47 11.9 °F /  -11.2 °C 3.1 °F /  -16.1 °C 1023.6 in /  34659.1 hPa ENE 14.5 mph /  23.3 km/h 16.1 mph /  25.9 km/h 55 % 0.0 in /  0 mm
16:52 11.8 °F /  -11.2 °C 3.0 °F /  -16.1 °C 1023.9 in /  34669.3 hPa NNE 14.5 mph /  23.3 km/h 19.3 mph /  31.1 km/h 55 % 0.0 in /  0 mm
17:02 11.7 °F /  -11.3 °C 3.2 °F /  -16 °C 1023.9 in /  34669.3 hPa ENE 6.4 mph /  10.3 km/h 19.3 mph /  31.1 km/h 56 % 0.0 in /  0 mm
17:12 11.6 °F /  -11.3 °C 3.4 °F /  -15.9 °C 1023.9 in /  34669.3 hPa NE 11.3 mph /  18.2 km/h 16.1 mph /  25.9 km/h 57 % 0.0 in /  0 mm
17:17 11.5 °F /  -11.4 °C 3.5 °F /  -15.8 °C 1023.9 in /  34669.3 hPa NE 6.4 mph /  10.3 km/h 16.1 mph /  25.9 km/h 58 % 0.0 in /  0 mm
17:22 11.4 °F /  -11.4 °C 3.2 °F /  -16 °C 1023.9 in /  34669.3 hPa NNE 9.7 mph /  15.6 km/h 16.1 mph /  25.9 km/h 57 % 0.0 in /  0 mm
17:32 11.3 °F /  -11.5 °C 3.6 °F /  -15.8 °C 1023.9 in /  34669.3 hPa NNE 9.7 mph /  15.6 km/h 12.9 mph /  20.8 km/h 59 % 0.0 in /  0 mm
17:37 11.2 °F /  -11.6 °C 3.5 °F /  -15.8 °C 1023.9 in /  34669.3 hPa NE 9.7 mph /  15.6 km/h 11.3 mph /  18.2 km/h 59 % 0.0 in /  0 mm
17:47 11.0 °F /  -11.7 °C 3.5 °F /  -15.8 °C 1023.9 in /  34669.3 hPa NNE 11.3 mph /  18.2 km/h 14.5 mph /  23.3 km/h 60 % 0.0 in /  0 mm
17:52 10.9 °F /  -11.7 °C 3.4 °F /  -15.9 °C 1023.9 in /  34669.3 hPa NE 12.9 mph /  20.8 km/h 19.3 mph /  31.1 km/h 60 % 0.0 in /  0 mm
18:07 10.4 °F /  -12 °C 3.7 °F /  -15.7 °C 1024.3 in /  34682.8 hPa NE 6.4 mph /  10.3 km/h 17.7 mph /  28.5 km/h 63 % 0.0 in /  0 mm
18:12 10.2 °F /  -12.1 °C 3.9 °F /  -15.6 °C 1024.3 in /  34682.8 hPa NE 11.3 mph /  18.2 km/h 12.9 mph /  20.8 km/h 65 % 0.0 in /  0 mm
18:17 10.0 °F /  -12.2 °C 3.7 °F /  -15.7 °C 1024.3 in /  34682.8 hPa NNE 9.7 mph /  15.6 km/h 12.9 mph /  20.8 km/h 65 % 0.0 in /  0 mm
18:22 9.8 °F /  -12.3 °C 3.5 °F /  -15.8 °C 1024.3 in /  34682.8 hPa NE 9.7 mph /  15.6 km/h 16.1 mph /  25.9 km/h 65 % 0.0 in /  0 mm
18:32 9.5 °F /  -12.5 °C 3.5 °F /  -15.8 °C 1024.3 in /  34682.8 hPa NNE 8.0 mph /  12.9 km/h 16.1 mph /  25.9 km/h 66 % 0.0 in /  0 mm
18:37 9.3 °F /  -12.6 °C 3.5 °F /  -15.8 °C 1024.3 in /  34682.8 hPa NNE 8.0 mph /  12.9 km/h 14.5 mph /  23.3 km/h 67 % 0.0 in /  0 mm
18:42 9.1 °F /  -12.7 °C 3.3 °F /  -15.9 °C 1024.3 in /  34682.8 hPa NE 6.4 mph /  10.3 km/h 14.5 mph /  23.3 km/h 67 % 0.0 in /  0 mm
18:47 9.1 °F /  -12.7 °C 3.5 °F /  -15.8 °C 1024.3 in /  34682.8 hPa NNE 8.0 mph /  12.9 km/h 14.5 mph /  23.3 km/h 68 % 0.0 in /  0 mm
18:52 8.9 °F /  -12.8 °C 3.3 °F /  -15.9 °C 1024.3 in /  34682.8 hPa NE 8.0 mph /  12.9 km/h 14.5 mph /  23.3 km/h 68 % 0.0 in /  0 mm
18:57 8.8 °F /  -12.9 °C 3.4 °F /  -15.9 °C 1024.3 in /  34682.8 hPa NNE 9.7 mph /  15.6 km/h 14.5 mph /  23.3 km/h 69 % 0.0 in /  0 mm
19:02 8.7 °F /  -12.9 °C 3.3 °F /  -15.9 °C 1024.3 in /  34682.8 hPa NNE 9.7 mph /  15.6 km/h 12.9 mph /  20.8 km/h 69 % 0.0 in /  0 mm
19:07 8.6 °F /  -13 °C 3.2 °F /  -16 °C 1024.3 in /  34682.8 hPa NNE 9.7 mph /  15.6 km/h 14.5 mph /  23.3 km/h 69 % 0.0 in /  0 mm
19:12 8.6 °F /  -13 °C 3.2 °F /  -16 °C 1024.3 in /  34682.8 hPa NNE 8.0 mph /  12.9 km/h 14.5 mph /  23.3 km/h 69 % 0.0 in /  0 mm
19:17 8.4 °F /  -13.1 °C 3.0 °F /  -16.1 °C 1024.3 in /  34682.8 hPa NE 8.0 mph /  12.9 km/h 14.5 mph /  23.3 km/h 69 % 0.0 in /  0 mm
19:22 8.3 °F /  -13.2 °C 3.1 °F /  -16.1 °C 1024.3 in /  34682.8 hPa NNE 8.0 mph /  12.9 km/h 12.9 mph /  20.8 km/h 70 % 0.0 in /  0 mm
19:32 7.9 °F /  -13.4 °C 3.0 °F /  -16.1 °C 1024.3 in /  34682.8 hPa NNE 1.6 mph /  2.6 km/h 12.9 mph /  20.8 km/h 71 % 0.0 in /  0 mm
19:37 7.7 °F /  -13.5 °C 3.2 °F /  -16 °C 1024.3 in /  34682.8 hPa NNE 4.8 mph /  7.7 km/h 12.9 mph /  20.8 km/h 73 % 0.0 in /  0 mm
19:42 7.6 °F /  -13.6 °C 3.1 °F /  -16.1 °C 1024.3 in /  34682.8 hPa NNE 6.4 mph /  10.3 km/h 9.7 mph /  15.6 km/h 73 % 0.0 in /  0 mm
19:52 7.5 °F /  -13.6 °C 3.2 °F /  -16 °C 1024.6 in /  34693 hPa North 6.4 mph /  10.3 km/h 12.9 mph /  20.8 km/h 74 % 0.0 in /  0 mm
19:57 7.4 °F /  -13.7 °C 3.3 °F /  -15.9 °C 1024.3 in /  34682.8 hPa NE 4.8 mph /  7.7 km/h 12.9 mph /  20.8 km/h 75 % 0.0 in /  0 mm
20:02 7.5 °F /  -13.6 °C 3.4 °F /  -15.9 °C 1024.6 in /  34693 hPa NNE 11.3 mph /  18.2 km/h 11.3 mph /  18.2 km/h 75 % 0.0 in /  0 mm
20:12 7.2 °F /  -13.8 °C 3.3 °F /  -15.9 °C 1024.6 in /  34693 hPa North 1.6 mph /  2.6 km/h 12.9 mph /  20.8 km/h 76 % 0.0 in /  0 mm
20:17 7.0 °F /  -13.9 °C 3.2 °F /  -16 °C 1024.6 in /  34693 hPa NNE 3.2 mph /  5.1 km/h 12.9 mph /  20.8 km/h 77 % 0.0 in /  0 mm
20:22 6.9 °F /  -13.9 °C 3.1 °F /  -16.1 °C 1024.6 in /  34693 hPa North 1.6 mph /  2.6 km/h 9.7 mph /  15.6 km/h 77 % 0.0 in /  0 mm
20:27 6.8 °F /  -14 °C 3.2 °F /  -16 °C 1024.6 in /  34693 hPa Calm   6.4 mph /  10.3 km/h 78 % 0.0 in /  0 mm
20:32 6.8 °F /  -14 °C 3.1 °F /  -16.1 °C 1024.6 in /  34693 hPa North 4.8 mph /  7.7 km/h 6.4 mph /  10.3 km/h 77 % 0.0 in /  0 mm
20:37 6.7 °F /  -14.1 °C 3.1 °F /  -16.1 °C 1024.6 in /  34693 hPa NE 4.8 mph /  7.7 km/h 11.3 mph /  18.2 km/h 78 % 0.0 in /  0 mm
20:42 6.8 °F /  -14 °C 3.2 °F /  -16 °C 1024.6 in /  34693 hPa NNE 9.7 mph /  15.6 km/h 11.3 mph /  18.2 km/h 78 % 0.0 in /  0 mm
20:47 6.8 °F /  -14 °C 3.1 °F /  -16.1 °C 1024.6 in /  34693 hPa NNE 1.6 mph /  2.6 km/h 11.3 mph /  18.2 km/h 77 % 0.0 in /  0 mm
20:52 6.8 °F /  -14 °C 3.1 °F /  -16.1 °C 1024.6 in /  34693 hPa NE 1.6 mph /  2.6 km/h 11.3 mph /  18.2 km/h 77 % 0.0 in /  0 mm
20:57 6.7 °F /  -14.1 °C 3.1 °F /  -16.1 °C 1024.6 in /  34693 hPa NE 4.8 mph /  7.7 km/h 11.3 mph /  18.2 km/h 78 % 0.0 in /  0 mm
21:02 6.8 °F /  -14 °C 2.9 °F /  -16.2 °C 1024.6 in /  34693 hPa NNE 6.4 mph /  10.3 km/h 9.7 mph /  15.6 km/h 76 % 0.0 in /  0 mm
21:07 7.1 °F /  -13.8 °C 3.0 °F /  -16.1 °C 1024.6 in /  34693 hPa NE 8.0 mph /  12.9 km/h 12.9 mph /  20.8 km/h 75 % 0.0 in /  0 mm
21:17 6.9 °F /  -13.9 °C 2.8 °F /  -16.2 °C 1024.6 in /  34693 hPa NE 4.8 mph /  7.7 km/h 16.1 mph /  25.9 km/h 75 % 0.0 in /  0 mm
21:22 6.7 °F /  -14.1 °C 3.0 °F /  -16.1 °C 1024.6 in /  34693 hPa NE 3.2 mph /  5.1 km/h 16.1 mph /  25.9 km/h 77 % 0.0 in /  0 mm
21:32 6.4 °F /  -14.2 °C 2.8 °F /  -16.2 °C 1024.6 in /  34693 hPa NNE 1.6 mph /  2.6 km/h 9.7 mph /  15.6 km/h 78 % 0.0 in /  0 mm
21:37 6.3 °F /  -14.3 °C 2.7 °F /  -16.3 °C 1024.6 in /  34693 hPa North 1.6 mph /  2.6 km/h 9.7 mph /  15.6 km/h 78 % 0.0 in /  0 mm
21:42 6.2 °F /  -14.3 °C 2.6 °F /  -16.3 °C 1024.6 in /  34693 hPa Calm   8.0 mph /  12.9 km/h 78 % 0.0 in /  0 mm
21:47 6.0 °F /  -14.4 °C 2.6 °F /  -16.3 °C 1024.6 in /  34693 hPa NNW 1.6 mph /  2.6 km/h 6.4 mph /  10.3 km/h 79 % 0.0 in /  0 mm
21:52 5.7 °F /  -14.6 °C 2.3 °F /  -16.5 °C 1024.6 in /  34693 hPa Calm   4.8 mph /  7.7 km/h 79 % 0.0 in /  0 mm
21:57 5.6 °F /  -14.7 °C 2.4 °F /  -16.4 °C 1024.6 in /  34693 hPa Calm   1.6 mph /  2.6 km/h 80 % 0.0 in /  0 mm
22:02 5.5 °F /  -14.7 °C 2.5 °F /  -16.4 °C 1024.6 in /  34693 hPa Calm   1.6 mph /  2.6 km/h 81 % 0.0 in /  0 mm
22:12 5.6 °F /  -14.7 °C 2.4 °F /  -16.4 °C 1024.6 in /  34693 hPa Calm     80 % 0.0 in /  0 mm
22:17 5.4 °F /  -14.8 °C 2.4 °F /  -16.4 °C 1024.6 in /  34693 hPa Calm   1.6 mph /  2.6 km/h 81 % 0.0 in /  0 mm
22:22 5.2 °F /  -14.9 °C 2.2 °F /  -16.6 °C 1024.6 in /  34693 hPa WNW 1.6 mph /  2.6 km/h 1.6 mph /  2.6 km/h 81 % 0.0 in /  0 mm
22:32 5.3 °F /  -14.8 °C 2.3 °F /  -16.5 °C 1024.6 in /  34693 hPa WNW 1.6 mph /  2.6 km/h 3.2 mph /  5.1 km/h 81 % 0.0 in /  0 mm
22:37 4.8 °F /  -15.1 °C 1.8 °F /  -16.8 °C 1024.6 in /  34693 hPa Calm   3.2 mph /  5.1 km/h 81 % 0.0 in /  0 mm
22:42 4.9 °F /  -15.1 °C 2.3 °F /  -16.5 °C 1024.6 in /  34693 hPa Calm   3.2 mph /  5.1 km/h 83 % 0.0 in /  0 mm
22:47 5.1 °F /  -14.9 °C 2.3 °F /  -16.5 °C 1024.9 in /  34703.1 hPa NW 1.6 mph /  2.6 km/h 3.2 mph /  5.1 km/h 82 % 0.0 in /  0 mm
22:52 5.1 °F /  -14.9 °C 2.3 °F /  -16.5 °C 1024.6 in /  34693 hPa NNW 1.6 mph /  2.6 km/h 1.6 mph /  2.6 km/h 82 % 0.0 in /  0 mm
22:57 5.0 °F /  -15 °C 2.2 °F /  -16.6 °C 1024.6 in /  34693 hPa Calm   3.2 mph /  5.1 km/h 82 % 0.0 in /  0 mm
23:02 4.9 °F /  -15.1 °C 2.1 °F /  -16.6 °C 1024.9 in /  34703.1 hPa Calm   3.2 mph /  5.1 km/h 82 % 0.0 in /  0 mm
23:07 4.8 °F /  -15.1 °C 2.0 °F /  -16.7 °C 1024.6 in /  34693 hPa Calm   3.2 mph /  5.1 km/h 82 % 0.0 in /  0 mm
23:12 4.7 °F /  -15.2 °C 2.1 °F /  -16.6 °C 1024.6 in /  34693 hPa Calm   1.6 mph /  2.6 km/h 83 % 0.0 in /  0 mm
23:17 4.7 °F /  -15.2 °C 2.1 °F /  -16.6 °C 1024.6 in /  34693 hPa Calm   1.6 mph /  2.6 km/h 83 % 0.0 in /  0 mm
23:22 4.6 °F /  -15.2 °C 2.0 °F /  -16.7 °C 1024.6 in /  34693 hPa Calm   1.6 mph /  2.6 km/h 83 % 0.0 in /  0 mm
23:27 4.4 °F /  -15.3 °C 1.8 °F /  -16.8 °C 1024.6 in /  34693 hPa Calm   1.6 mph /  2.6 km/h 83 % 0.0 in /  0 mm
23:32 4.3 °F /  -15.4 °C 1.8 °F /  -16.8 °C 1024.6 in /  34693 hPa Calm   1.6 mph /  2.6 km/h 84 % 0.0 in /  0 mm
23:37 4.3 °F /  -15.4 °C 2.0 °F /  -16.7 °C 1024.6 in /  34693 hPa Calm   1.6 mph /  2.6 km/h 85 % 0.0 in /  0 mm
23:42 4.2 °F /  -15.4 °C 1.7 °F /  -16.8 °C 1024.9 in /  34703.1 hPa Calm   1.6 mph /  2.6 km/h 84 % 0.0 in /  0 mm
23:47 4.0 °F /  -15.6 °C 1.7 °F /  -16.8 °C 1024.9 in /  34703.1 hPa NNW 1.6 mph /  2.6 km/h 1.6 mph /  2.6 km/h 85 % 0.0 in /  0 mm
23:52 3.8 °F /  -15.7 °C 1.5 °F /  -16.9 °C 1024.9 in /  34703.1 hPa Calm   3.2 mph /  5.1 km/h 85 % 0.0 in /  0 mm
23:57 3.8 °F /  -15.7 °C 1.7 °F /  -16.8 °C 1024.9 in /  34703.1 hPa NW 1.6 mph /  2.6 km/h 3.2 mph /  5.1 km/h 86 % 0.0 in /  0 mm
Meteo18
Compliments of Weather Underground - 4 mb

Script developed by  Jim McMurry - jmcmurry@mwt.net Adapted for the template by  Wim van der Kuil - Leuven-Template.eu

You find our weather info also at:

European Weather Network

Weather Underground

Equipment we use:

Weather-station
Davis Vue

Weather-program
Meteobridge

Weather-server
Raspberry PI 2 B+

Provider
1 and 1

Davis Vue

Meteobridge

Raspberry PI 2 B+

1 and 1